sensor_id;sensor_type;location;lat;lon;timestamp;P1;durP1;ratioP1;P2;durP2;ratioP2
55684;SDS011;41883;49.544;8.646;2022-10-26T00:01:04;1.52;;;0.70;;
55684;SDS011;41883;49.544;8.646;2022-10-26T00:06:03;4.43;;;1.13;;
55684;SDS011;41883;49.544;8.646;2022-10-26T00:08:30;2.80;;;1.08;;
55684;SDS011;41883;49.544;8.646;2022-10-26T00:10:58;2.42;;;1.10;;
55684;SDS011;41883;49.544;8.646;2022-10-26T00:13:24;3.65;;;1.45;;
55684;SDS011;41883;49.544;8.646;2022-10-26T00:15:49;3.38;;;1.58;;
55684;SDS011;41883;49.544;8.646;2022-10-26T00:18:15;2.63;;;1.40;;
55684;SDS011;41883;49.544;8.646;2022-10-26T00:20:40;2.85;;;1.40;;
55684;SDS011;41883;49.544;8.646;2022-10-26T00:23:06;2.63;;;1.50;;
55684;SDS011;41883;49.544;8.646;2022-10-26T00:25:31;3.33;;;1.40;;
55684;SDS011;41883;49.544;8.646;2022-10-26T00:27:57;3.00;;;1.50;;
55684;SDS011;41883;49.544;8.646;2022-10-26T00:30:22;2.50;;;1.23;;
55684;SDS011;41883;49.544;8.646;2022-10-26T00:32:48;1.50;;;1.00;;
55684;SDS011;41883;49.544;8.646;2022-10-26T00:35:13;2.90;;;1.48;;
55684;SDS011;41883;49.544;8.646;2022-10-26T00:37:38;3.10;;;1.40;;
55684;SDS011;41883;49.544;8.646;2022-10-26T00:40:04;3.38;;;1.70;;
55684;SDS011;41883;49.544;8.646;2022-10-26T00:42:29;2.42;;;1.45;;
55684;SDS011;41883;49.544;8.646;2022-10-26T00:44:55;3.70;;;1.40;;
55684;SDS011;41883;49.544;8.646;2022-10-26T00:47:28;2.05;;;1.30;;
55684;SDS011;41883;49.544;8.646;2022-10-26T00:50:06;3.65;;;1.55;;
55684;SDS011;41883;49.544;8.646;2022-10-26T00:52:35;3.05;;;1.40;;
55684;SDS011;41883;49.544;8.646;2022-10-26T00:55:01;3.67;;;1.63;;
55684;SDS011;41883;49.544;8.646;2022-10-26T00:57:26;2.20;;;1.10;;
55684;SDS011;41883;49.544;8.646;2022-10-26T00:59:52;2.65;;;1.40;;
55684;SDS011;41883;49.544;8.646;2022-10-26T01:02:20;3.72;;;1.52;;
55684;SDS011;41883;49.544;8.646;2022-10-26T01:04:45;4.72;;;2.03;;
55684;SDS011;41883;49.544;8.646;2022-10-26T01:07:11;5.28;;;2.30;;
55684;SDS011;41883;49.544;8.646;2022-10-26T01:09:37;5.55;;;2.55;;
55684;SDS011;41883;49.544;8.646;2022-10-26T01:12:03;5.72;;;2.50;;
55684;SDS011;41883;49.544;8.646;2022-10-26T01:14:28;3.97;;;2.33;;
55684;SDS011;41883;49.544;8.646;2022-10-26T01:16:57;4.22;;;2.40;;
55684;SDS011;41883;49.544;8.646;2022-10-26T01:22:18;3.08;;;2.20;;
55684;SDS011;41883;49.544;8.646;2022-10-26T01:27:45;4.97;;;2.30;;
55684;SDS011;41883;49.544;8.646;2022-10-26T01:30:15;5.60;;;2.47;;
55684;SDS011;41883;49.544;8.646;2022-10-26T01:32:46;4.05;;;2.00;;
55684;SDS011;41883;49.544;8.646;2022-10-26T01:35:37;4.60;;;2.15;;
55684;SDS011;41883;49.544;8.646;2022-10-26T01:38:13;4.32;;;1.98;;
55684;SDS011;41883;49.544;8.646;2022-10-26T01:40:45;3.25;;;1.95;;
55684;SDS011;41883;49.544;8.646;2022-10-26T01:43:17;3.58;;;1.85;;
55684;SDS011;41883;49.544;8.646;2022-10-26T01:45:45;3.00;;;1.60;;
55684;SDS011;41883;49.544;8.646;2022-10-26T01:48:12;3.13;;;1.60;;
55684;SDS011;41883;49.544;8.646;2022-10-26T01:50:41;3.17;;;1.40;;
55684;SDS011;41883;49.544;8.646;2022-10-26T01:53:11;2.35;;;1.17;;
55684;SDS011;41883;49.544;8.646;2022-10-26T01:58:09;2.90;;;1.23;;
55684;SDS011;41883;49.544;8.646;2022-10-26T02:00:50;2.08;;;0.90;;
55684;SDS011;41883;49.544;8.646;2022-10-26T02:03:28;3.72;;;1.15;;
55684;SDS011;41883;49.544;8.646;2022-10-26T02:06:11;2.28;;;1.15;;
55684;SDS011;41883;49.544;8.646;2022-10-26T02:11:31;2.38;;;1.02;;
55684;SDS011;41883;49.544;8.646;2022-10-26T02:14:11;1.80;;;1.08;;
55684;SDS011;41883;49.544;8.646;2022-10-26T02:22:14;2.08;;;1.10;;
55684;SDS011;41883;49.544;8.646;2022-10-26T02:27:16;2.08;;;1.00;;
55684;SDS011;41883;49.544;8.646;2022-10-26T02:29:49;3.50;;;1.17;;
55684;SDS011;41883;49.544;8.646;2022-10-26T02:32:17;3.05;;;1.40;;
55684;SDS011;41883;49.544;8.646;2022-10-26T02:34:44;4.75;;;1.60;;
55684;SDS011;41883;49.544;8.646;2022-10-26T02:37:12;4.47;;;2.10;;
55684;SDS011;41883;49.544;8.646;2022-10-26T02:39:42;2.72;;;1.50;;
55684;SDS011;41883;49.544;8.646;2022-10-26T02:42:10;3.00;;;1.52;;
55684;SDS011;41883;49.544;8.646;2022-10-26T02:44:47;2.17;;;1.33;;
55684;SDS011;41883;49.544;8.646;2022-10-26T02:47:15;2.65;;;1.40;;
55684;SDS011;41883;49.544;8.646;2022-10-26T02:49:42;3.58;;;1.90;;
55684;SDS011;41883;49.544;8.646;2022-10-26T02:52:10;2.15;;;1.48;;
55684;SDS011;41883;49.544;8.646;2022-10-26T03:00:07;3.38;;;1.70;;
55684;SDS011;41883;49.544;8.646;2022-10-26T03:02:35;3.17;;;2.00;;
55684;SDS011;41883;49.544;8.646;2022-10-26T03:05:20;3.65;;;2.20;;
55684;SDS011;41883;49.544;8.646;2022-10-26T03:07:48;5.00;;;2.05;;
55684;SDS011;41883;49.544;8.646;2022-10-26T03:10:14;3.50;;;2.20;;
55684;SDS011;41883;49.544;8.646;2022-10-26T03:12:39;5.57;;;2.22;;
55684;SDS011;41883;49.544;8.646;2022-10-26T03:15:04;4.82;;;2.10;;
55684;SDS011;41883;49.544;8.646;2022-10-26T03:17:30;3.97;;;1.85;;
55684;SDS011;41883;49.544;8.646;2022-10-26T03:19:55;4.40;;;2.30;;
55684;SDS011;41883;49.544;8.646;2022-10-26T03:22:21;3.60;;;2.20;;
55684;SDS011;41883;49.544;8.646;2022-10-26T03:24:46;4.22;;;2.15;;
55684;SDS011;41883;49.544;8.646;2022-10-26T03:27:12;3.47;;;2.50;;
55684;SDS011;41883;49.544;8.646;2022-10-26T03:29:38;7.25;;;2.97;;
55684;SDS011;41883;49.544;8.646;2022-10-26T03:32:03;4.82;;;2.75;;
55684;SDS011;41883;49.544;8.646;2022-10-26T03:34:28;4.43;;;2.30;;
55684;SDS011;41883;49.544;8.646;2022-10-26T03:36:54;4.80;;;2.67;;
55684;SDS011;41883;49.544;8.646;2022-10-26T03:39:19;4.57;;;2.30;;
55684;SDS011;41883;49.544;8.646;2022-10-26T03:41:44;4.60;;;2.30;;
55684;SDS011;41883;49.544;8.646;2022-10-26T03:44:09;6.50;;;2.10;;
55684;SDS011;41883;49.544;8.646;2022-10-26T03:46:35;4.10;;;1.85;;
55684;SDS011;41883;49.544;8.646;2022-10-26T03:49:00;4.23;;;1.67;;
55684;SDS011;41883;49.544;8.646;2022-10-26T03:51:25;4.75;;;2.42;;
55684;SDS011;41883;49.544;8.646;2022-10-26T03:53:52;3.10;;;1.90;;
55684;SDS011;41883;49.544;8.646;2022-10-26T03:56:17;3.85;;;1.88;;
55684;SDS011;41883;49.544;8.646;2022-10-26T03:58:42;2.87;;;1.67;;
55684;SDS011;41883;49.544;8.646;2022-10-26T04:01:07;3.43;;;1.50;;
55684;SDS011;41883;49.544;8.646;2022-10-26T04:03:32;3.83;;;2.08;;
55684;SDS011;41883;49.544;8.646;2022-10-26T04:06:01;8.95;;;3.50;;
55684;SDS011;41883;49.544;8.646;2022-10-26T04:08:27;8.43;;;3.65;;
55684;SDS011;41883;49.544;8.646;2022-10-26T04:10:52;5.13;;;2.70;;
55684;SDS011;41883;49.544;8.646;2022-10-26T04:13:17;7.77;;;2.70;;
55684;SDS011;41883;49.544;8.646;2022-10-26T04:15:42;4.40;;;2.50;;
55684;SDS011;41883;49.544;8.646;2022-10-26T04:18:08;5.82;;;2.80;;
55684;SDS011;41883;49.544;8.646;2022-10-26T04:20:36;8.35;;;3.78;;
55684;SDS011;41883;49.544;8.646;2022-10-26T04:23:03;7.35;;;3.78;;
55684;SDS011;41883;49.544;8.646;2022-10-26T04:25:31;6.40;;;3.45;;
55684;SDS011;41883;49.544;8.646;2022-10-26T04:27:57;10.68;;;4.00;;
55684;SDS011;41883;49.544;8.646;2022-10-26T04:30:22;6.55;;;3.42;;
55684;SDS011;41883;49.544;8.646;2022-10-26T04:32:48;4.43;;;2.70;;
55684;SDS011;41883;49.544;8.646;2022-10-26T04:35:13;5.80;;;2.88;;
55684;SDS011;41883;49.544;8.646;2022-10-26T04:37:39;8.10;;;2.90;;
55684;SDS011;41883;49.544;8.646;2022-10-26T04:40:04;3.70;;;2.22;;
55684;SDS011;41883;49.544;8.646;2022-10-26T04:42:30;4.28;;;1.92;;
55684;SDS011;41883;49.544;8.646;2022-10-26T04:44:57;3.22;;;1.80;;
55684;SDS011;41883;49.544;8.646;2022-10-26T04:47:23;3.90;;;2.50;;
55684;SDS011;41883;49.544;8.646;2022-10-26T04:49:48;5.43;;;2.75;;
55684;SDS011;41883;49.544;8.646;2022-10-26T04:52:14;7.25;;;2.97;;
55684;SDS011;41883;49.544;8.646;2022-10-26T04:54:39;6.50;;;3.40;;
55684;SDS011;41883;49.544;8.646;2022-10-26T04:57:04;9.23;;;4.15;;
55684;SDS011;41883;49.544;8.646;2022-10-26T04:59:29;6.78;;;2.92;;
55684;SDS011;41883;49.544;8.646;2022-10-26T05:01:55;6.30;;;2.80;;
55684;SDS011;41883;49.544;8.646;2022-10-26T05:04:20;5.03;;;2.40;;
55684;SDS011;41883;49.544;8.646;2022-10-26T05:06:45;4.47;;;2.40;;
55684;SDS011;41883;49.544;8.646;2022-10-26T05:09:10;6.20;;;2.92;;
55684;SDS011;41883;49.544;8.646;2022-10-26T05:11:36;5.45;;;2.20;;
55684;SDS011;41883;49.544;8.646;2022-10-26T05:14:01;4.88;;;2.30;;
55684;SDS011;41883;49.544;8.646;2022-10-26T05:16:26;3.55;;;2.42;;
55684;SDS011;41883;49.544;8.646;2022-10-26T05:18:51;4.85;;;2.53;;
55684;SDS011;41883;49.544;8.646;2022-10-26T05:21:17;4.45;;;2.38;;
55684;SDS011;41883;49.544;8.646;2022-10-26T05:23:49;3.50;;;2.00;;
55684;SDS011;41883;49.544;8.646;2022-10-26T05:26:16;3.92;;;2.13;;
55684;SDS011;41883;49.544;8.646;2022-10-26T05:28:41;4.13;;;2.42;;
55684;SDS011;41883;49.544;8.646;2022-10-26T05:31:07;4.43;;;2.28;;
55684;SDS011;41883;49.544;8.646;2022-10-26T05:33:32;5.13;;;2.30;;
55684;SDS011;41883;49.544;8.646;2022-10-26T05:35:57;3.33;;;2.00;;
55684;SDS011;41883;49.544;8.646;2022-10-26T05:38:22;3.70;;;2.13;;
55684;SDS011;41883;49.544;8.646;2022-10-26T05:40:48;3.63;;;2.38;;
55684;SDS011;41883;49.544;8.646;2022-10-26T05:43:15;4.45;;;2.25;;
55684;SDS011;41883;49.544;8.646;2022-10-26T05:45:41;5.53;;;2.60;;
55684;SDS011;41883;49.544;8.646;2022-10-26T05:48:06;3.38;;;2.03;;
55684;SDS011;41883;49.544;8.646;2022-10-26T05:50:31;3.97;;;2.10;;
55684;SDS011;41883;49.544;8.646;2022-10-26T05:52:57;4.85;;;2.53;;
55684;SDS011;41883;49.544;8.646;2022-10-26T05:55:22;5.15;;;2.45;;
55684;SDS011;41883;49.544;8.646;2022-10-26T05:57:47;5.30;;;1.90;;
55684;SDS011;41883;49.544;8.646;2022-10-26T06:00:17;5.35;;;2.40;;
55684;SDS011;41883;49.544;8.646;2022-10-26T06:05:28;4.50;;;2.63;;
55684;SDS011;41883;49.544;8.646;2022-10-26T06:08:00;3.65;;;2.22;;
55684;SDS011;41883;49.544;8.646;2022-10-26T06:10:25;5.50;;;2.60;;
55684;SDS011;41883;49.544;8.646;2022-10-26T06:12:51;5.13;;;2.60;;
55684;SDS011;41883;49.544;8.646;2022-10-26T06:15:20;4.18;;;2.80;;
55684;SDS011;41883;49.544;8.646;2022-10-26T06:17:58;5.30;;;2.65;;
55684;SDS011;41883;49.544;8.646;2022-10-26T06:29:13;4.25;;;2.50;;
55684;SDS011;41883;49.544;8.646;2022-10-26T06:31:48;4.28;;;2.33;;
55684;SDS011;41883;49.544;8.646;2022-10-26T06:34:16;5.35;;;2.38;;
55684;SDS011;41883;49.544;8.646;2022-10-26T06:36:46;5.07;;;2.78;;
55684;SDS011;41883;49.544;8.646;2022-10-26T06:39:13;4.47;;;2.60;;
55684;SDS011;41883;49.544;8.646;2022-10-26T06:41:40;3.97;;;2.42;;
55684;SDS011;41883;49.544;8.646;2022-10-26T06:44:18;4.20;;;2.30;;
55684;SDS011;41883;49.544;8.646;2022-10-26T06:49:55;3.92;;;2.10;;
55684;SDS011;41883;49.544;8.646;2022-10-26T06:52:43;4.20;;;2.00;;
55684;SDS011;41883;49.544;8.646;2022-10-26T06:55:15;4.85;;;1.90;;
55684;SDS011;41883;49.544;8.646;2022-10-26T06:57:41;5.07;;;1.70;;
55684;SDS011;41883;49.544;8.646;2022-10-26T07:02:39;4.55;;;1.60;;
55684;SDS011;41883;49.544;8.646;2022-10-26T07:05:04;5.25;;;2.08;;
55684;SDS011;41883;49.544;8.646;2022-10-26T07:07:34;4.60;;;1.90;;
55684;SDS011;41883;49.544;8.646;2022-10-26T07:10:01;3.13;;;1.73;;
55684;SDS011;41883;49.544;8.646;2022-10-26T07:12:26;3.10;;;1.80;;
55684;SDS011;41883;49.544;8.646;2022-10-26T07:14:51;3.03;;;1.63;;
55684;SDS011;41883;49.544;8.646;2022-10-26T07:17:17;3.20;;;1.80;;
55684;SDS011;41883;49.544;8.646;2022-10-26T07:19:42;4.93;;;1.80;;
55684;SDS011;41883;49.544;8.646;2022-10-26T07:22:08;6.82;;;1.83;;
55684;SDS011;41883;49.544;8.646;2022-10-26T07:24:34;4.30;;;1.90;;
55684;SDS011;41883;49.544;8.646;2022-10-26T07:26:59;4.40;;;1.50;;
55684;SDS011;41883;49.544;8.646;2022-10-26T07:29:25;3.42;;;1.60;;
55684;SDS011;41883;49.544;8.646;2022-10-26T07:31:51;3.90;;;1.60;;
55684;SDS011;41883;49.544;8.646;2022-10-26T07:34:16;4.20;;;1.80;;
55684;SDS011;41883;49.544;8.646;2022-10-26T07:36:42;4.53;;;1.60;;
55684;SDS011;41883;49.544;8.646;2022-10-26T07:39:07;5.07;;;2.00;;
55684;SDS011;41883;49.544;8.646;2022-10-26T07:41:32;7.53;;;2.17;;
55684;SDS011;41883;49.544;8.646;2022-10-26T07:43:58;4.05;;;1.70;;
55684;SDS011;41883;49.544;8.646;2022-10-26T07:46:24;4.50;;;1.70;;
55684;SDS011;41883;49.544;8.646;2022-10-26T07:48:50;4.18;;;1.65;;
55684;SDS011;41883;49.544;8.646;2022-10-26T07:51:15;4.18;;;1.98;;
55684;SDS011;41883;49.544;8.646;2022-10-26T07:53:40;5.13;;;1.57;;
55684;SDS011;41883;49.544;8.646;2022-10-26T07:56:06;3.75;;;1.85;;
55684;SDS011;41883;49.544;8.646;2022-10-26T07:58:32;5.13;;;1.58;;
55684;SDS011;41883;49.544;8.646;2022-10-26T08:01:03;4.88;;;1.70;;
55684;SDS011;41883;49.544;8.646;2022-10-26T08:03:32;3.75;;;1.60;;
55684;SDS011;41883;49.544;8.646;2022-10-26T08:05:58;3.65;;;1.52;;
55684;SDS011;41883;49.544;8.646;2022-10-26T08:08:23;3.97;;;1.90;;
55684;SDS011;41883;49.544;8.646;2022-10-26T08:10:48;2.40;;;1.70;;
55684;SDS011;41883;49.544;8.646;2022-10-26T08:13:15;3.00;;;1.50;;
55684;SDS011;41883;49.544;8.646;2022-10-26T08:15:40;7.65;;;1.80;;
55684;SDS011;41883;49.544;8.646;2022-10-26T08:18:05;3.20;;;1.50;;
55684;SDS011;41883;49.544;8.646;2022-10-26T08:20:31;3.47;;;1.60;;
55684;SDS011;41883;49.544;8.646;2022-10-26T08:22:57;3.67;;;1.60;;
55684;SDS011;41883;49.544;8.646;2022-10-26T08:25:23;3.42;;;1.70;;
55684;SDS011;41883;49.544;8.646;2022-10-26T08:27:49;5.05;;;1.60;;
55684;SDS011;41883;49.544;8.646;2022-10-26T08:30:14;5.95;;;1.80;;
55684;SDS011;41883;49.544;8.646;2022-10-26T08:32:40;4.95;;;1.58;;
55684;SDS011;41883;49.544;8.646;2022-10-26T08:35:06;4.40;;;1.77;;
55684;SDS011;41883;49.544;8.646;2022-10-26T08:37:32;4.55;;;1.58;;
55684;SDS011;41883;49.544;8.646;2022-10-26T08:39:57;5.32;;;1.73;;
55684;SDS011;41883;49.544;8.646;2022-10-26T08:42:24;3.08;;;1.50;;
55684;SDS011;41883;49.544;8.646;2022-10-26T08:44:57;6.45;;;1.42;;
55684;SDS011;41883;49.544;8.646;2022-10-26T08:47:29;3.97;;;1.95;;
55684;SDS011;41883;49.544;8.646;2022-10-26T08:52:50;4.22;;;1.90;;
55684;SDS011;41883;49.544;8.646;2022-10-26T08:55:30;6.13;;;1.70;;
55684;SDS011;41883;49.544;8.646;2022-10-26T08:58:03;3.10;;;1.60;;
55684;SDS011;41883;49.544;8.646;2022-10-26T09:00:37;2.78;;;1.40;;
55684;SDS011;41883;49.544;8.646;2022-10-26T09:03:08;6.15;;;2.00;;
55684;SDS011;41883;49.544;8.646;2022-10-26T09:05:40;4.72;;;1.90;;
55684;SDS011;41883;49.544;8.646;2022-10-26T09:08:23;4.03;;;1.70;;
55684;SDS011;41883;49.544;8.646;2022-10-26T09:11:07;4.13;;;1.90;;
55684;SDS011;41883;49.544;8.646;2022-10-26T09:16:36;4.47;;;1.77;;
55684;SDS011;41883;49.544;8.646;2022-10-26T09:19:22;4.38;;;1.77;;
55684;SDS011;41883;49.544;8.646;2022-10-26T09:22:25;4.85;;;1.70;;
55684;SDS011;41883;49.544;8.646;2022-10-26T09:24:58;3.80;;;1.80;;
55684;SDS011;41883;49.544;8.646;2022-10-26T09:27:38;5.10;;;1.90;;
55684;SDS011;41883;49.544;8.646;2022-10-26T09:30:12;4.63;;;2.00;;
55684;SDS011;41883;49.544;8.646;2022-10-26T09:32:40;3.60;;;1.80;;
55684;SDS011;41883;49.544;8.646;2022-10-26T09:35:54;6.80;;;2.07;;
55684;SDS011;41883;49.544;8.646;2022-10-26T09:38:22;4.65;;;1.88;;
55684;SDS011;41883;49.544;8.646;2022-10-26T09:44:10;4.05;;;2.00;;
55684;SDS011;41883;49.544;8.646;2022-10-26T09:47:02;3.70;;;1.77;;
55684;SDS011;41883;49.544;8.646;2022-10-26T09:54:33;6.10;;;1.87;;
55684;SDS011;41883;49.544;8.646;2022-10-26T09:56:58;5.20;;;1.90;;
55684;SDS011;41883;49.544;8.646;2022-10-26T09:59:28;3.13;;;1.80;;
55684;SDS011;41883;49.544;8.646;2022-10-26T10:01:57;5.63;;;1.90;;
55684;SDS011;41883;49.544;8.646;2022-10-26T10:04:22;6.45;;;1.90;;
55684;SDS011;41883;49.544;8.646;2022-10-26T10:09:25;4.93;;;2.00;;
55684;SDS011;41883;49.544;8.646;2022-10-26T10:11:52;5.45;;;2.20;;
55684;SDS011;41883;49.544;8.646;2022-10-26T10:14:21;4.70;;;2.28;;
55684;SDS011;41883;49.544;8.646;2022-10-26T10:19:26;5.25;;;2.00;;
55684;SDS011;41883;49.544;8.646;2022-10-26T10:24:42;5.45;;;2.20;;
55684;SDS011;41883;49.544;8.646;2022-10-26T10:27:24;3.80;;;1.65;;
55684;SDS011;41883;49.544;8.646;2022-10-26T10:29:51;6.75;;;2.20;;
55684;SDS011;41883;49.544;8.646;2022-10-26T10:32:23;6.45;;;2.03;;
55684;SDS011;41883;49.544;8.646;2022-10-26T10:34:52;4.55;;;1.95;;
55684;SDS011;41883;49.544;8.646;2022-10-26T10:37:29;5.80;;;2.00;;
55684;SDS011;41883;49.544;8.646;2022-10-26T10:40:02;5.95;;;1.98;;
55684;SDS011;41883;49.544;8.646;2022-10-26T10:42:33;5.22;;;2.20;;
55684;SDS011;41883;49.544;8.646;2022-10-26T10:45:00;5.47;;;2.00;;
55684;SDS011;41883;49.544;8.646;2022-10-26T10:47:31;4.50;;;1.90;;
55684;SDS011;41883;49.544;8.646;2022-10-26T10:52:30;5.47;;;2.05;;
55684;SDS011;41883;49.544;8.646;2022-10-26T10:55:18;7.70;;;2.30;;
55684;SDS011;41883;49.544;8.646;2022-10-26T11:00:39;4.60;;;1.95;;
55684;SDS011;41883;49.544;8.646;2022-10-26T11:03:14;5.05;;;2.17;;
55684;SDS011;41883;49.544;8.646;2022-10-26T11:08:41;5.78;;;1.73;;
55684;SDS011;41883;49.544;8.646;2022-10-26T11:21:36;4.65;;;1.80;;
55684;SDS011;41883;49.544;8.646;2022-10-26T11:24:12;3.85;;;1.67;;
55684;SDS011;41883;49.544;8.646;2022-10-26T11:26:50;3.10;;;1.70;;
55684;SDS011;41883;49.544;8.646;2022-10-26T11:29:42;4.68;;;1.83;;
55684;SDS011;41883;49.544;8.646;2022-10-26T11:32:29;5.00;;;1.85;;
55684;SDS011;41883;49.544;8.646;2022-10-26T11:35:10;7.43;;;1.95;;
55684;SDS011;41883;49.544;8.646;2022-10-26T11:37:43;7.32;;;2.30;;
55684;SDS011;41883;49.544;8.646;2022-10-26T11:45:35;7.03;;;2.20;;
55684;SDS011;41883;49.544;8.646;2022-10-26T11:48:22;6.85;;;2.28;;
55684;SDS011;41883;49.544;8.646;2022-10-26T11:50:53;4.75;;;2.13;;
55684;SDS011;41883;49.544;8.646;2022-10-26T11:53:32;4.97;;;1.90;;
55684;SDS011;41883;49.544;8.646;2022-10-26T11:56:04;4.90;;;2.10;;
55684;SDS011;41883;49.544;8.646;2022-10-26T11:58:51;5.90;;;2.13;;
55684;SDS011;41883;49.544;8.646;2022-10-26T12:01:17;5.07;;;2.03;;
55684;SDS011;41883;49.544;8.646;2022-10-26T12:03:44;4.35;;;1.90;;
55684;SDS011;41883;49.544;8.646;2022-10-26T12:06:13;4.80;;;2.00;;
55684;SDS011;41883;49.544;8.646;2022-10-26T12:08:47;4.32;;;2.20;;
55684;SDS011;41883;49.544;8.646;2022-10-26T12:14:02;4.37;;;1.90;;
55684;SDS011;41883;49.544;8.646;2022-10-26T12:19:23;5.93;;;2.00;;
55684;SDS011;41883;49.544;8.646;2022-10-26T12:21:52;4.13;;;1.70;;
55684;SDS011;41883;49.544;8.646;2022-10-26T12:26:54;5.57;;;2.20;;
55684;SDS011;41883;49.544;8.646;2022-10-26T12:29:31;5.47;;;2.03;;
55684;SDS011;41883;49.544;8.646;2022-10-26T12:32:00;5.82;;;1.75;;
55684;SDS011;41883;49.544;8.646;2022-10-26T12:39:33;3.17;;;1.80;;
55684;SDS011;41883;49.544;8.646;2022-10-26T12:44:32;6.70;;;2.33;;
55684;SDS011;41883;49.544;8.646;2022-10-26T12:47:01;6.20;;;2.40;;
55684;SDS011;41883;49.544;8.646;2022-10-26T12:57:58;6.32;;;2.20;;
55684;SDS011;41883;49.544;8.646;2022-10-26T13:01:26;6.90;;;2.45;;
55684;SDS011;41883;49.544;8.646;2022-10-26T13:09:35;5.88;;;2.15;;
55684;SDS011;41883;49.544;8.646;2022-10-26T13:12:01;5.38;;;1.85;;
55684;SDS011;41883;49.544;8.646;2022-10-26T13:14:30;6.78;;;2.22;;
55684;SDS011;41883;49.544;8.646;2022-10-26T13:17:26;7.00;;;2.15;;
55684;SDS011;41883;49.544;8.646;2022-10-26T13:19:54;5.32;;;2.05;;
55684;SDS011;41883;49.544;8.646;2022-10-26T13:22:22;5.45;;;2.13;;
55684;SDS011;41883;49.544;8.646;2022-10-26T13:24:52;5.80;;;2.00;;
55684;SDS011;41883;49.544;8.646;2022-10-26T13:27:20;5.50;;;2.15;;
55684;SDS011;41883;49.544;8.646;2022-10-26T13:32:49;4.68;;;1.92;;
55684;SDS011;41883;49.544;8.646;2022-10-26T13:35:20;3.90;;;1.90;;
55684;SDS011;41883;49.544;8.646;2022-10-26T13:37:48;7.30;;;2.00;;
55684;SDS011;41883;49.544;8.646;2022-10-26T13:40:16;5.18;;;1.92;;
55684;SDS011;41883;49.544;8.646;2022-10-26T13:42:44;5.30;;;2.00;;
55684;SDS011;41883;49.544;8.646;2022-10-26T13:45:17;4.38;;;2.08;;
55684;SDS011;41883;49.544;8.646;2022-10-26T14:03:32;3.95;;;1.98;;
55684;SDS011;41883;49.544;8.646;2022-10-26T14:05:58;6.00;;;2.00;;
55684;SDS011;41883;49.544;8.646;2022-10-26T14:08:23;5.90;;;2.13;;
55684;SDS011;41883;49.544;8.646;2022-10-26T14:13:20;7.47;;;2.05;;
55684;SDS011;41883;49.544;8.646;2022-10-26T14:15:50;3.47;;;2.00;;
55684;SDS011;41883;49.544;8.646;2022-10-26T14:18:17;4.80;;;1.77;;
55684;SDS011;41883;49.544;8.646;2022-10-26T14:20:47;3.60;;;1.70;;
55684;SDS011;41883;49.544;8.646;2022-10-26T14:25:53;6.40;;;1.75;;
55684;SDS011;41883;49.544;8.646;2022-10-26T14:28:20;4.85;;;1.95;;
55684;SDS011;41883;49.544;8.646;2022-10-26T14:30:47;4.50;;;2.10;;
55684;SDS011;41883;49.544;8.646;2022-10-26T14:33:18;3.92;;;1.88;;
55684;SDS011;41883;49.544;8.646;2022-10-26T14:35:48;4.90;;;1.90;;
55684;SDS011;41883;49.544;8.646;2022-10-26T14:38:16;4.70;;;1.85;;
55684;SDS011;41883;49.544;8.646;2022-10-26T14:40:43;6.32;;;2.00;;
55684;SDS011;41883;49.544;8.646;2022-10-26T14:43:10;4.68;;;2.05;;
55684;SDS011;41883;49.544;8.646;2022-10-26T14:45:46;6.35;;;2.00;;
55684;SDS011;41883;49.544;8.646;2022-10-26T14:48:24;4.38;;;1.85;;
55684;SDS011;41883;49.544;8.646;2022-10-26T14:50:58;4.18;;;2.03;;
55684;SDS011;41883;49.544;8.646;2022-10-26T14:53:38;3.63;;;1.85;;
55684;SDS011;41883;49.544;8.646;2022-10-26T14:56:15;5.43;;;2.00;;
55684;SDS011;41883;49.544;8.646;2022-10-26T14:58:44;8.27;;;2.20;;
55684;SDS011;41883;49.544;8.646;2022-10-26T15:01:13;6.75;;;2.22;;
55684;SDS011;41883;49.544;8.646;2022-10-26T15:03:39;3.88;;;1.85;;
55684;SDS011;41883;49.544;8.646;2022-10-26T15:18:49;4.00;;;1.83;;
55684;SDS011;41883;49.544;8.646;2022-10-26T15:23:50;4.63;;;1.70;;
55684;SDS011;41883;49.544;8.646;2022-10-26T15:26:18;4.25;;;1.83;;
55684;SDS011;41883;49.544;8.646;2022-10-26T15:28:44;4.65;;;1.90;;
55684;SDS011;41883;49.544;8.646;2022-10-26T15:36:28;3.80;;;1.80;;
55684;SDS011;41883;49.544;8.646;2022-10-26T15:38:55;3.22;;;1.65;;
55684;SDS011;41883;49.544;8.646;2022-10-26T15:44:00;4.53;;;1.92;;
55684;SDS011;41883;49.544;8.646;2022-10-26T15:46:33;3.67;;;1.83;;
55684;SDS011;41883;49.544;8.646;2022-10-26T15:49:01;4.90;;;2.00;;
55684;SDS011;41883;49.544;8.646;2022-10-26T15:51:28;4.75;;;2.53;;
55684;SDS011;41883;49.544;8.646;2022-10-26T15:53:56;4.70;;;1.80;;
55684;SDS011;41883;49.544;8.646;2022-10-26T15:56:22;3.53;;;1.73;;
55684;SDS011;41883;49.544;8.646;2022-10-26T15:58:49;5.38;;;1.92;;
55684;SDS011;41883;49.544;8.646;2022-10-26T16:01:16;6.07;;;1.85;;
55684;SDS011;41883;49.544;8.646;2022-10-26T16:03:46;5.03;;;1.90;;
55684;SDS011;41883;49.544;8.646;2022-10-26T16:06:15;3.97;;;2.00;;
55684;SDS011;41883;49.544;8.646;2022-10-26T16:08:47;4.93;;;1.70;;
55684;SDS011;41883;49.544;8.646;2022-10-26T16:11:14;3.88;;;1.95;;
55684;SDS011;41883;49.544;8.646;2022-10-26T16:13:40;4.70;;;2.13;;
55684;SDS011;41883;49.544;8.646;2022-10-26T16:16:09;4.38;;;1.73;;
55684;SDS011;41883;49.544;8.646;2022-10-26T16:18:39;5.35;;;1.85;;
55684;SDS011;41883;49.544;8.646;2022-10-26T16:21:04;5.32;;;1.88;;
55684;SDS011;41883;49.544;8.646;2022-10-26T16:23:30;4.00;;;1.85;;
55684;SDS011;41883;49.544;8.646;2022-10-26T16:25:55;5.28;;;2.15;;
55684;SDS011;41883;49.544;8.646;2022-10-26T16:28:20;4.53;;;2.42;;
55684;SDS011;41883;49.544;8.646;2022-10-26T16:30:46;4.78;;;2.20;;
55684;SDS011;41883;49.544;8.646;2022-10-26T16:33:11;5.30;;;2.13;;
55684;SDS011;41883;49.544;8.646;2022-10-26T16:35:36;5.05;;;2.10;;
55684;SDS011;41883;49.544;8.646;2022-10-26T16:38:02;3.58;;;1.90;;
55684;SDS011;41883;49.544;8.646;2022-10-26T16:40:27;2.65;;;1.60;;
55684;SDS011;41883;49.544;8.646;2022-10-26T16:42:52;3.03;;;1.60;;
55684;SDS011;41883;49.544;8.646;2022-10-26T16:45:18;2.67;;;1.40;;
55684;SDS011;41883;49.544;8.646;2022-10-26T16:47:43;2.97;;;1.50;;
55684;SDS011;41883;49.544;8.646;2022-10-26T16:50:09;2.70;;;1.40;;
55684;SDS011;41883;49.544;8.646;2022-10-26T16:52:36;2.90;;;1.50;;
55684;SDS011;41883;49.544;8.646;2022-10-26T16:55:02;3.35;;;1.65;;
55684;SDS011;41883;49.544;8.646;2022-10-26T16:57:29;2.10;;;1.30;;
55684;SDS011;41883;49.544;8.646;2022-10-26T16:59:54;3.00;;;1.80;;
55684;SDS011;41883;49.544;8.646;2022-10-26T17:02:20;3.72;;;1.83;;
55684;SDS011;41883;49.544;8.646;2022-10-26T17:04:45;3.42;;;1.80;;
55684;SDS011;41883;49.544;8.646;2022-10-26T17:07:10;2.42;;;1.60;;
55684;SDS011;41883;49.544;8.646;2022-10-26T17:09:36;3.80;;;1.73;;
55684;SDS011;41883;49.544;8.646;2022-10-26T17:12:02;3.85;;;1.48;;
55684;SDS011;41883;49.544;8.646;2022-10-26T17:14:27;4.60;;;1.67;;
55684;SDS011;41883;49.544;8.646;2022-10-26T17:16:52;4.82;;;1.67;;
55684;SDS011;41883;49.544;8.646;2022-10-26T17:19:18;3.60;;;1.60;;
55684;SDS011;41883;49.544;8.646;2022-10-26T17:21:43;3.73;;;1.97;;
55684;SDS011;41883;49.544;8.646;2022-10-26T17:24:09;3.35;;;1.80;;
55684;SDS011;41883;49.544;8.646;2022-10-26T17:26:35;4.93;;;2.47;;
55684;SDS011;41883;49.544;8.646;2022-10-26T17:29:01;4.75;;;2.17;;
55684;SDS011;41883;49.544;8.646;2022-10-26T17:31:26;3.88;;;2.17;;
55684;SDS011;41883;49.544;8.646;2022-10-26T17:33:52;6.10;;;2.05;;
55684;SDS011;41883;49.544;8.646;2022-10-26T17:36:19;5.82;;;2.30;;
55684;SDS011;41883;49.544;8.646;2022-10-26T17:38:49;7.20;;;2.85;;
55684;SDS011;41883;49.544;8.646;2022-10-26T17:41:17;4.33;;;2.40;;
55684;SDS011;41883;49.544;8.646;2022-10-26T17:43:43;6.47;;;3.20;;
55684;SDS011;41883;49.544;8.646;2022-10-26T17:46:11;6.38;;;3.05;;